| time (UTC) | temp F | wind direction | speed knots | gust knots | rain 1hr in | rain 24hr in | rain mn in | humidity % | barometer mb |
| 20260505230820 | 71 | 135 | 0.0 | 0.0 | 0.00 | 0.00 | 0.00 | 99 | 1010.2 |
| 20260505230311 | 71 | 113 | 0.0 | 0.0 | 0.00 | 0.00 | 0.00 | 99 | 1010.1 |
| 20260505225801 | 71 | 135 | 0.0 | 0.0 | 0.00 | 0.00 | 0.00 | 98 | 1010.1 |
| 20260505224231 | 71 | 113 | 0.0 | 0.0 | 0.00 | 0.00 | 0.00 | 98 | 1010.0 |
| 20260505223721 | 71 | 113 | 0.0 | 0.0 | 0.00 | 0.00 | 0.00 | 98 | 1009.8 |
| 20260505223214 | 71 | 113 | 0.0 | 0.0 | 0.00 | 0.00 | 0.00 | 97 | 1009.7 |
| 20260505222701 | 71 | 113 | 0.0 | 0.0 | 0.00 | 0.00 | 0.00 | 97 | 1009.9 |
| 20260505221640 | 72 | 113 | 0.0 | 0.0 | 0.00 | 0.00 | 0.00 | 96 | 1010.0 |
| 20260505221130 | 72 | 113 | 0.0 | 0.0 | 0.00 | 0.00 | 0.00 | 95 | 1009.9 |
| 20260505220623 | 73 | 113 | 0.0 | 0.0 | 0.00 | 0.00 | 0.00 | 94 | 1009.7 |
| 20260505220109 | 74 | 113 | 0.0 | 0.0 | 0.00 | 0.00 | 0.00 | 95 | 1009.8 |
| 20260505215558 | 74 | 113 | 0.0 | 0.0 | 0.00 | 0.00 | 0.00 | 94 | 1009.7 |
| 20260505215048 | 74 | 113 | 0.0 | 0.0 | 0.00 | 0.00 | 0.00 | 94 | 1009.7 |
| 20260505214538 | 75 | 113 | 0.0 | 0.0 | 0.00 | 0.00 | 0.00 | 93 | 1009.7 |
| 20260505213522 | 76 | 113 | 0.0 | 0.0 | 0.00 | 0.00 | 0.00 | 92 | 1009.5 |
| 20260505213010 | 76 | 113 | 0.0 | 0.0 | 0.00 | 0.00 | 0.00 | 91 | 1009.7 |
| 20260505212500 | 77 | 113 | 0.0 | 0.0 | 0.00 | 0.00 | 0.00 | 90 | 1009.8 |
| 20260505211949 | 77 | 113 | 0.0 | 0.0 | 0.00 | 0.00 | 0.00 | 90 | 1009.6 |
| 20260505211438 | 77 | 113 | 0.0 | 0.0 | 0.00 | 0.00 | 0.00 | 89 | 1009.6 |
| 20260505210929 | 78 | 225 | 0.0 | 0.0 | 0.00 | 0.00 | 0.00 | 89 | 1009.8 |
| 20260505210420 | 78 | 113 | 0.0 | 0.0 | 0.00 | 0.00 | 0.00 | 89 | 1009.6 |
| 20260505205909 | 78 | 113 | 0.0 | 0.0 | 0.00 | 0.00 | 0.00 | 88 | 1009.6 |
| 20260505205359 | 79 | 113 | 0.0 | 0.0 | 0.00 | 0.00 | 0.00 | 87 | 1009.4 |
| 20260505204852 | 79 | 90 | 0.0 | 0.0 | 0.00 | 0.00 | 0.00 | 86 | 1009.6 |
| 20260505203827 | 79 | 90 | 0.0 | 0.0 | 0.00 | 0.00 | 0.00 | 86 | 1009.6 |
| 20260505202806 | 80 | 90 | 0.0 | 0.0 | 0.00 | 0.00 | 0.00 | 85 | 1009.6 |
| 20260505202257 | 80 | 90 | 0.0 | 3.5 | 0.00 | 0.00 | 0.00 | 85 | 1009.8 |
| 20260505201747 | 80 | 45 | 0.0 | 3.5 | 0.00 | 0.00 | 0.00 | 85 | 1009.8 |
| 20260505201237 | 80 | 0 | 0.0 | 3.5 | 0.00 | 0.00 | 0.00 | 84 | 1009.8 |
| 20260505200726 | 80 | 23 | 1.7 | 3.5 | 0.00 | 0.00 | 0.00 | 84 | 1009.7 |
| 20260505200218 | 80 | 0 | 0.9 | 3.5 | 0.00 | 0.00 | 0.00 | 84 | 1009.6 |
| 20260505195157 | 82 | 68 | 0.0 | 0.0 | 0.00 | 0.00 | 0.00 | 81 | 1009.8 |
| 20260505194649 | 81 | 338 | 0.0 | 3.5 | 0.00 | 0.00 | 0.00 | 83 | 1009.6 |
| 20260505194137 | 80 | 68 | 0.0 | 6.1 | 0.00 | 0.00 | 0.00 | 85 | 1009.9 |
| 20260505193628 | 80 | 0 | 1.7 | 6.1 | 0.00 | 0.00 | 0.00 | 84 | 1010.1 |
| 20260505193118 | 80 | 23 | 0.0 | 3.5 | 0.00 | 0.00 | 0.00 | 85 | 1009.8 |
| 20260505192610 | 80 | 23 | 1.7 | 3.5 | 0.00 | 0.00 | 0.00 | 85 | 1009.8 |
| 20260505192057 | 80 | 45 | 0.9 | 1.7 | 0.00 | 0.00 | 0.00 | 84 | 1009.8 |
| 20260505191549 | 81 | 23 | 0.0 | 0.0 | 0.00 | 0.00 | 0.00 | 84 | 1009.7 |
| 20260505191035 | 80 | 45 | 0.0 | 0.0 | 0.00 | 0.00 | 0.00 | 84 | 1009.8 |
| 20260505185504 | 80 | 45 | 0.0 | 0.0 | 0.00 | 0.00 | 0.00 | 85 | 1010.0 |
| 20260505184957 | 80 | 113 | 0.0 | 0.0 | 0.00 | 0.00 | 0.00 | 84 | 1010.0 |
| 20260505184446 | 80 | 0 | 0.0 | 0.0 | 0.00 | 0.00 | 0.00 | 84 | 1009.9 |
| 20260505183424 | 80 | 90 | 0.0 | 0.0 | 0.00 | 0.00 | 0.00 | 84 | 1009.8 |
| 20260505182916 | 80 | 23 | 0.0 | 1.7 | 0.00 | 0.00 | 0.00 | 84 | 1009.9 |
| 20260505182405 | 80 | 338 | 0.0 | 3.5 | 0.00 | 0.00 | 0.00 | 84 | 1009.7 |
| 20260505181855 | 80 | 0 | 2.6 | 3.5 | 0.00 | 0.00 | 0.00 | 84 | 1009.7 |
| 20260505180325 | 80 | 68 | 0.0 | 3.5 | 0.00 | 0.00 | 0.00 | 85 | 1009.9 |
| 20260505175307 | 80 | 113 | 0.0 | 1.7 | 0.00 | 0.00 | 0.00 | 85 | 1009.6 |
| 20260505174758 | 79 | 0 | 0.0 | 1.7 | 0.00 | 0.00 | 0.00 | 85 | 1009.7 |
| 20260505174247 | 80 | 68 | 0.0 | 1.7 | 0.00 | 0.00 | 0.00 | 84 | 1009.8 |
| 20260505173222 | 80 | 90 | 0.0 | 6.1 | 0.00 | 0.00 | 0.00 | 84 | 1009.9 |
| 20260505172713 | 80 | 113 | 0.0 | 6.1 | 0.00 | 0.00 | 0.00 | 84 | 1009.9 |
| 20260505172202 | 81 | 68 | 0.0 | 5.2 | 0.00 | 0.00 | 0.00 | 83 | 1010.0 |
| 20260505171653 | 80 | 293 | 0.9 | 5.2 | 0.00 | 0.00 | 0.00 | 85 | 1010.0 |
| 20260505171142 | 80 | 45 | 0.9 | 5.2 | 0.00 | 0.00 | 0.00 | 84 | 1010.0 |
| 20260505170632 | 80 | 135 | 0.9 | 3.5 | 0.00 | 0.00 | 0.00 | 84 | 1010.2 |
| 20260505170122 | 80 | 315 | 1.7 | 6.1 | 0.00 | 0.00 | 0.00 | 85 | 1010.2 |
| 20260505165613 | 80 | 0 | 0.0 | 6.1 | 0.00 | 0.00 | 0.00 | 84 | 1010.5 |
| 20260505165103 | 80 | 45 | 1.7 | 6.1 | 0.00 | 0.00 | 0.00 | 84 | 1010.7 |
| 20260505164553 | 81 | 0 | 3.5 | 6.1 | 0.00 | 0.00 | 0.00 | 84 | 1010.6 |
| 20260505164043 | 81 | 0 | 2.6 | 6.1 | 0.00 | 0.00 | 0.00 | 82 | 1010.7 |
| 20260505163533 | 81 | 315 | 1.7 | 6.1 | 0.00 | 0.00 | 0.00 | 82 | 1010.6 |
| 20260505163023 | 80 | 113 | 1.7 | 5.2 | 0.00 | 0.00 | 0.00 | 84 | 1010.9 |
| 20260505162513 | 79 | 293 | 0.0 | 3.5 | 0.00 | 0.00 | 0.00 | 85 | 1011.0 |
| 20260505162004 | 80 | 68 | 0.0 | 1.7 | 0.00 | 0.00 | 0.00 | 84 | 1010.9 |
| 20260505161453 | 81 | 45 | 0.0 | 1.7 | 0.00 | 0.00 | 0.00 | 82 | 1011.1 |
| 20260505160940 | 79 | 0 | 0.0 | 3.5 | 0.00 | 0.00 | 0.00 | 84 | 1011.0 |
| 20260505160430 | 78 | 90 | 0.9 | 5.2 | 0.00 | 0.00 | 0.00 | 87 | 1011.3 |
| 20260505153330 | 76 | 113 | 0.0 | 0.0 | 0.00 | 0.00 | 0.00 | 89 | 1011.5 |
| 20260505152311 | 76 | 135 | 0.0 | 1.7 | 0.00 | 0.00 | 0.00 | 89 | 1011.5 |
| 20260505150741 | 75 | 0 | 0.0 | 1.7 | 0.00 | 0.00 | 0.00 | 89 | 1011.7 |
| 20260505150231 | 75 | 68 | 0.0 | 5.2 | 0.00 | 0.00 | 0.00 | 91 | 1011.9 |
| 20260505140543 | 72 | 90 | 0.0 | 3.5 | 0.00 | 0.00 | 0.00 | 94 | 1012.4 |
| 20260505124807 | 72 | 293 | 0.0 | 1.7 | 0.00 | 0.00 | 0.00 | 93 | 1012.2 |
| 20260505124257 | 71 | 338 | 0.0 | 1.7 | 0.00 | 0.00 | 0.00 | 94 | 1012.2 |
| 20260505123236 | 70 | 113 | 0.0 | 1.7 | 0.00 | 0.00 | 0.00 | 96 | 1012.1 |
| 20260505122726 | 69 | 113 | 0.0 | 1.7 | 0.00 | 0.00 | 0.00 | 98 | 1012.1 |
| 20260505121707 | 69 | 45 | 0.0 | 1.7 | 0.00 | 0.00 | 0.00 | 98 | 1012.1 |
| 20260505120648 | 68 | 113 | 0.0 | 3.5 | 0.00 | 0.00 | 0.00 | 99 | 1012.0 |
| 20260505120138 | 68 | 23 | 0.0 | 3.5 | 0.00 | 0.00 | 0.00 | 99 | 1011.9 |
| 20260505114100 | 67 | 23 | 0.0 | 0.0 | 0.00 | 0.00 | 0.00 | 99 | 1011.8 |
| 20260505113550 | 67 | 45 | 0.0 | 0.0 | 0.00 | 0.00 | 0.00 | 99 | 1011.7 |
| 20260505113045 | 67 | 90 | 0.0 | 0.0 | 0.00 | 0.00 | 0.00 | 99 | 1011.6 |
| 20260505112525 | 66 | 113 | 0.0 | 0.0 | 0.00 | 0.00 | 0.00 | 99 | 1011.6 |
| 20260505112015 | 66 | 45 | 0.0 | 3.5 | 0.00 | 0.00 | 0.00 | 99 | 1011.5 |
| 20260505111514 | 66 | 113 | 0.0 | 3.5 | 0.00 | 0.00 | 0.00 | 99 | 1011.4 |
| 20260505101818 | 65 | 135 | 0.0 | 0.0 | 0.00 | 0.00 | 0.00 | 99 | 1011.1 |
| 20260505101303 | 65 | 113 | 0.0 | 0.0 | 0.00 | 0.00 | 0.00 | 99 | 1011.3 |
| 20260505100753 | 65 | 135 | 0.0 | 1.7 | 0.00 | 0.00 | 0.00 | 99 | 1011.2 |
| 20260505100245 | 65 | 113 | 0.0 | 1.7 | 0.00 | 0.00 | 0.00 | 99 | 1011.2 |
| 20260505095220 | 65 | 113 | 0.0 | 0.0 | 0.00 | 0.00 | 0.00 | 99 | 1011.1 |
| 20260505094204 | 65 | 113 | 0.0 | 0.0 | 0.00 | 0.00 | 0.00 | 99 | 1010.6 |
| 20260505093152 | 65 | 113 | 0.0 | 0.0 | 0.00 | 0.00 | 0.00 | 99 | 1010.5 |
| 20260505092635 | 65 | 113 | 0.0 | 0.0 | 0.00 | 0.00 | 0.00 | 99 | 1010.4 |
| 20260505091619 | 65 | 23 | 0.0 | 0.0 | 0.00 | 0.00 | 0.00 | 99 | 1010.6 |
| 20260505091102 | 65 | 113 | 0.0 | 0.0 | 0.00 | 0.00 | 0.00 | 99 | 1010.4 |
| 20260505090552 | 65 | 113 | 0.0 | 0.0 | 0.00 | 0.00 | 0.00 | 99 | 1010.4 |
| 20260505090046 | 65 | 113 | 0.0 | 0.0 | 0.00 | 0.00 | 0.00 | 99 | 1010.7 |
| 20260505085022 | 65 | 135 | 0.0 | 0.0 | 0.00 | 0.00 | 0.00 | 99 | 1010.5 |
| 20260505084514 | 66 | 45 | 0.0 | 1.7 | 0.00 | 0.00 | 0.00 | 99 | 1010.6 |
| 20260505083452 | 66 | 90 | 0.0 | 3.5 | 0.00 | 0.00 | 0.00 | 99 | 1010.5 |
| 20260505082435 | 66 | 68 | 0.0 | 0.0 | 0.00 | 0.00 | 0.00 | 99 | 1010.9 |
| 20260505081926 | 66 | 68 | 0.0 | 0.0 | 0.00 | 0.00 | 0.00 | 99 | 1010.5 |
| 20260505080900 | 66 | 0 | 0.0 | 0.0 | 0.00 | 0.00 | 0.00 | 99 | 1011.0 |
| 20260505080355 | 66 | 68 | 0.0 | 0.0 | 0.00 | 0.00 | 0.00 | 99 | 1010.4 |
| 20260505075843 | 66 | 68 | 0.0 | 0.0 | 0.00 | 0.00 | 0.00 | 99 | 1010.4 |
| 20260505075338 | 66 | 68 | 0.0 | 0.0 | 0.00 | 0.00 | 0.00 | 99 | 1010.7 |
| 20260505074825 | 66 | 68 | 0.0 | 1.7 | 0.00 | 0.00 | 0.00 | 99 | 1010.8 |
| 20260505072742 | 66 | 45 | 0.0 | 0.0 | 0.00 | 0.00 | 0.00 | 99 | 1010.7 |
| 20260505072230 | 66 | 68 | 0.0 | 0.0 | 0.00 | 0.00 | 0.00 | 99 | 1010.7 |
| 20260505071720 | 66 | 68 | 0.0 | 0.0 | 0.00 | 0.00 | 0.00 | 99 | 1010.8 |
| 20260505071211 | 66 | 158 | 0.0 | 0.0 | 0.00 | 0.00 | 0.00 | 99 | 1010.7 |
| 20260505070658 | 66 | 113 | 0.0 | 0.0 | 0.00 | 0.00 | 0.00 | 99 | 1010.7 |
| 20260505070149 | 66 | 113 | 0.0 | 0.0 | 0.00 | 0.00 | 0.00 | 99 | 1010.8 |
| 20260505065130 | 66 | 90 | 0.0 | 0.0 | 0.00 | 0.00 | 0.00 | 99 | 1010.5 |
| 20260505064115 | 66 | 68 | 0.0 | 1.7 | 0.00 | 0.00 | 0.00 | 99 | 1010.8 |
| 20260505063601 | 66 | 135 | 0.0 | 0.0 | 0.00 | 0.00 | 0.00 | 99 | 1010.8 |
| 20260505063051 | 66 | 90 | 0.0 | 0.0 | 0.00 | 0.00 | 0.00 | 99 | 1011.0 |
| 20260505062540 | 66 | 113 | 0.0 | 0.0 | 0.00 | 0.00 | 0.00 | 99 | 1011.0 |
| 20260505061520 | 66 | 90 | 0.0 | 1.7 | 0.00 | 0.00 | 0.00 | 99 | 1011.0 |
| 20260505061016 | 66 | 180 | 0.0 | 1.7 | 0.00 | 0.00 | 0.00 | 99 | 1011.0 |
| 20260505060500 | 66 | 135 | 0.0 | 1.7 | 0.00 | 0.00 | 0.00 | 99 | 1011.0 |
| 20260505055440 | 66 | 113 | 0.0 | 0.0 | 0.00 | 0.00 | 0.00 | 99 | 1011.2 |
| 20260505054417 | 66 | 45 | 0.0 | 0.0 | 0.00 | 0.00 | 0.00 | 99 | 1011.0 |
| 20260505053909 | 66 | 135 | 0.0 | 0.0 | 0.00 | 0.00 | 0.00 | 99 | 1011.1 |
| 20260505053358 | 66 | 23 | 0.0 | 0.0 | 0.00 | 0.00 | 0.00 | 99 | 1011.2 |
| 20260505052847 | 67 | 135 | 0.0 | 0.0 | 0.00 | 0.00 | 0.00 | 98 | 1011.2 |
| 20260505052341 | 67 | 45 | 0.0 | 0.0 | 0.00 | 0.00 | 0.00 | 98 | 1011.2 |
| 20260505051320 | 67 | 158 | 0.0 | 0.0 | 0.00 | 0.00 | 0.00 | 98 | 1011.1 |
| 20260505050811 | 67 | 158 | 0.0 | 0.0 | 0.00 | 0.00 | 0.00 | 98 | 1011.2 |
| 20260505050301 | 67 | 45 | 0.0 | 0.0 | 0.00 | 0.00 | 0.00 | 98 | 1010.9 |
| 20260505041626 | 67 | 68 | 0.0 | 0.0 | 0.00 | 0.00 | 0.00 | 98 | 1011.2 |
| 20260505041121 | 67 | 180 | 0.0 | 0.0 | 0.00 | 0.00 | 0.00 | 98 | 1011.2 |
| 20260505040054 | 67 | 45 | 0.0 | 0.0 | 0.00 | 0.00 | 0.00 | 97 | 1011.2 |
| 20260505035547 | 67 | 45 | 0.0 | 1.7 | 0.00 | 0.00 | 0.00 | 97 | 1011.0 |
| 20260505035036 | 67 | 23 | 0.0 | 1.7 | 0.00 | 0.00 | 0.00 | 97 | 1011.0 |
| 20260505034528 | 67 | 158 | 0.0 | 0.0 | 0.00 | 0.00 | 0.00 | 97 | 1011.0 |
| 20260505034020 | 67 | 248 | 0.0 | 1.7 | 0.00 | 0.00 | 0.00 | 97 | 1011.1 |
| 20260505033506 | 67 | 90 | 0.0 | 3.5 | 0.00 | 0.00 | 0.00 | 97 | 1011.0 |
| 20260505032957 | 67 | 135 | 0.0 | 3.5 | 0.00 | 0.00 | 0.00 | 97 | 1011.2 |
| 20260505031427 | 66 | 68 | 0.0 | 0.0 | 0.00 | 0.00 | 0.00 | 96 | 1011.4 |
| 20260505030920 | 66 | 68 | 0.0 | 0.0 | 0.00 | 0.00 | 0.00 | 96 | 1011.3 |
| 20260505030407 | 66 | 338 | 0.0 | 0.0 | 0.00 | 0.00 | 0.00 | 96 | 1011.5 |
| 20260505025854 | 66 | 90 | 0.0 | 0.0 | 0.00 | 0.00 | 0.00 | 96 | 1011.3 |
| 20260505025345 | 66 | 68 | 0.0 | 0.0 | 0.00 | 0.00 | 0.00 | 96 | 1011.2 |
| 20260505024323 | 66 | 68 | 0.0 | 0.0 | 0.00 | 0.00 | 0.00 | 96 | 1011.1 |
| 20260505022754 | 66 | 113 | 0.0 | 3.5 | 0.00 | 0.00 | 0.00 | 95 | 1011.0 |
| 20260505022244 | 66 | 90 | 0.0 | 3.5 | 0.00 | 0.00 | 0.00 | 95 | 1010.9 |
| 20260505021735 | 66 | 113 | 0.0 | 1.7 | 0.00 | 0.00 | 0.00 | 95 | 1011.0 |
| 20260505021224 | 66 | 180 | 0.0 | 0.0 | 0.00 | 0.00 | 0.00 | 95 | 1010.7 |
| 20260505020714 | 67 | 113 | 0.0 | 3.5 | 0.00 | 0.00 | 0.00 | 94 | 1010.9 |
| 20260505020204 | 67 | 90 | 0.0 | 7.0 | 0.00 | 0.00 | 0.00 | 94 | 1010.7 |
| 20260505015655 | 67 | 23 | 0.0 | 7.0 | 0.00 | 0.00 | 0.00 | 94 | 1010.8 |
| 20260505015144 | 67 | 68 | 0.0 | 1.7 | 0.00 | 0.00 | 0.00 | 94 | 1010.6 |
| 20260505014634 | 67 | 248 | 0.0 | 3.5 | 0.00 | 0.00 | 0.00 | 94 | 1010.5 |
| 20260505014126 | 67 | 90 | 0.0 | 3.5 | 0.00 | 0.00 | 0.00 | 94 | 1010.6 |
| 20260505013613 | 67 | 113 | 0.0 | 3.5 | 0.00 | 0.00 | 0.00 | 94 | 1010.3 |
| 20260505013101 | 67 | 68 | 0.0 | 3.5 | 0.00 | 0.00 | 0.00 | 93 | 1010.5 |
| 20260505012042 | 67 | 113 | 0.0 | 3.5 | 0.00 | 0.00 | 0.00 | 93 | 1010.7 |
| 20260505011024 | 67 | 90 | 0.0 | 1.7 | 0.00 | 0.00 | 0.00 | 93 | 1010.3 |
| 20260505010511 | 67 | 135 | 0.0 | 1.7 | 0.00 | 0.00 | 0.00 | 93 | 1010.7 |
| 20260505005451 | 67 | 90 | 0.0 | 3.5 | 0.00 | 0.00 | 0.00 | 92 | 1010.5 |
| 20260505004943 | 67 | 45 | 0.0 | 3.5 | 0.00 | 0.00 | 0.00 | 91 | 1010.5 |
| 20260505004432 | 66 | 90 | 0.9 | 3.5 | 0.00 | 0.00 | 0.00 | 91 | 1010.4 |
| 20260505003922 | 66 | 113 | 0.0 | 1.7 | 0.00 | 0.00 | 0.00 | 90 | 1010.3 |
| 20260505003412 | 66 | 113 | 0.0 | 3.5 | 0.00 | 0.00 | 0.00 | 90 | 1010.4 |
| 20260505002904 | 66 | 68 | 0.0 | 3.5 | 0.00 | 0.00 | 0.00 | 89 | 1010.4 |
| 20260505002353 | 66 | 113 | 0.0 | 1.7 | 0.00 | 0.00 | 0.00 | 88 | 1010.2 |
| 20260505001842 | 66 | 113 | 0.0 | 1.7 | 0.00 | 0.00 | 0.00 | 87 | 1010.2 |
| 20260505000822 | 65 | 113 | 0.0 | 0.0 | 0.00 | 0.00 | 0.00 | 86 | 1010.3 |
| 20260505000313 | 65 | 113 | 0.0 | 0.0 | 0.00 | 0.00 | 0.00 | 86 | 1010.2 |
| 20260504235802 | 65 | 113 | 0.0 | 0.0 | 0.00 | 0.00 | 0.00 | 86 | 1010.2 |
| 20260504234739 | 65 | 113 | 0.0 | 0.0 | 0.00 | 0.00 | 0.00 | 85 | 1010.1 |
| 20260504233722 | 64 | 135 | 0.0 | 0.0 | 0.00 | 0.00 | 0.00 | 85 | 1010.1 |
| 20260504232702 | 65 | 113 | 0.0 | 0.0 | 0.00 | 0.00 | 0.00 | 84 | 1009.8 |
| 20260504232149 | 65 | 113 | 0.0 | 0.0 | 0.00 | 0.00 | 0.00 | 84 | 1009.6 |
| 20260504231640 | 65 | 113 | 0.0 | 0.0 | 0.00 | 0.00 | 0.00 | 84 | 1009.6 |